createdAt,value
2018-04-19T00:00:19.057Z,70.01
2018-04-19T00:01:19.301Z,69.91
2018-04-19T00:02:19.544Z,69.91
2018-04-19T00:03:19.789Z,70.67
2018-04-19T00:04:20.033Z,70.48
2018-04-19T00:05:20.276Z,70.67
2018-04-19T00:06:20.521Z,70.48
2018-04-19T00:07:20.764Z,70.39
2018-04-19T00:08:21.014Z,69.53
2018-04-19T00:09:21.253Z,69.53
2018-04-19T00:10:21.497Z,69.72
2018-04-19T00:11:21.741Z,69.34
2018-04-19T00:12:21.984Z,69.34
2018-04-19T00:13:22.229Z,69.34
2018-04-19T00:14:22.472Z,69.62
2018-04-19T00:15:22.717Z,69.43
2018-04-19T00:16:22.962Z,69.62
2018-04-19T00:17:23.206Z,69.82
2018-04-19T00:18:23.449Z,69.43
2018-04-19T00:19:23.692Z,69.34
2018-04-19T00:20:23.936Z,69.15
2018-04-19T00:21:24.177Z,69.53
2018-04-19T00:22:24.422Z,69.53
2018-04-19T00:23:24.663Z,69.43
2018-04-19T00:24:24.908Z,70.20
2018-04-19T00:25:25.152Z,70.48
2018-04-19T00:26:25.396Z,70.39
2018-04-19T00:27:25.640Z,70.87
2018-04-19T00:28:25.882Z,71.02
2018-04-19T00:29:26.125Z,71.31
2018-04-19T00:30:26.370Z,71.31
2018-04-19T00:31:26.614Z,71.98
2018-04-19T00:32:26.857Z,72.17
2018-04-19T00:33:27.101Z,72.17
2018-04-19T00:34:27.375Z,72.17
2018-04-19T00:35:27.588Z,72.07
2018-04-19T00:36:27.834Z,72.07
2018-04-19T00:37:28.075Z,72.07
2018-04-19T00:38:28.319Z,72.55
2018-04-19T00:39:28.563Z,73.12
2018-04-19T00:40:28.805Z,73.32
2018-04-19T00:41:29.049Z,72.74
2018-04-19T00:42:29.296Z,73.60
2018-04-19T00:43:29.537Z,73.50
2018-04-19T00:44:29.783Z,73.56
2018-04-19T00:45:30.029Z,73.85
2018-04-19T00:46:30.269Z,74.42
2018-04-19T00:47:30.511Z,74.04
2018-04-19T00:48:30.758Z,74.32
2018-04-19T00:49:30.995Z,74.32
2018-04-19T00:50:31.240Z,74.04
2018-04-19T00:51:31.484Z,73.94
2018-04-19T00:52:31.730Z,74.23
2018-04-19T00:53:31.972Z,74.32
2018-04-19T00:54:32.216Z,74.42
2018-04-19T00:55:32.458Z,74.32
2018-04-19T00:56:32.703Z,74.23
2018-04-19T00:57:32.947Z,74.23
2018-04-19T00:58:33.190Z,74.04
2018-04-19T00:59:33.434Z,74.13
2018-04-19T01:00:33.677Z,74.80
2018-04-19T01:01:33.920Z,74.90
2018-04-19T01:02:34.166Z,74.80
2018-04-19T01:03:34.410Z,75.28
2018-04-19T01:04:34.651Z,75.09
2018-04-19T01:05:34.895Z,75.09
2018-04-19T01:06:35.140Z,75.09
2018-04-19T01:07:35.382Z,75.47
2018-04-19T01:08:35.626Z,75.09
2018-04-19T01:09:35.871Z,74.99
2018-04-19T01:10:36.112Z,75.47
2018-04-19T01:11:36.355Z,75.47
2018-04-19T01:12:36.598Z,76.14
2018-04-19T01:13:36.841Z,75.95
2018-04-19T01:14:37.082Z,75.95
2018-04-19T01:15:37.326Z,75.95
2018-04-19T01:16:37.569Z,75.85
2018-04-19T01:17:37.811Z,75.95
2018-04-19T01:18:38.054Z,76.33
2018-04-19T01:19:38.298Z,76.52
2018-04-19T01:20:38.541Z,76.52
2018-04-19T01:21:38.782Z,76.42
2018-04-19T01:22:39.027Z,76.33
2018-04-19T01:23:39.268Z,76.42
2018-04-19T01:24:39.514Z,76.42
2018-04-19T01:25:39.753Z,77.00
2018-04-19T01:26:39.995Z,76.90
2018-04-19T01:27:40.240Z,76.71
2018-04-19T01:28:40.478Z,76.81
2018-04-19T01:29:40.722Z,76.52
2018-04-19T01:30:40.963Z,76.71
2018-04-19T01:31:41.206Z,76.42
2018-04-19T01:32:41.450Z,76.42
2018-04-19T01:33:41.694Z,76.52
2018-04-19T01:34:41.936Z,75.95
2018-04-19T01:35:42.178Z,76.33
2018-04-19T01:36:42.420Z,76.52
2018-04-19T01:37:42.664Z,76.52
2018-04-19T01:38:42.952Z,76.81
2018-04-19T01:39:43.144Z,77.19
2018-04-19T01:40:43.386Z,77.95
2018-04-19T01:41:43.629Z,77.62
2018-04-19T01:42:43.869Z,78.01
2018-04-19T01:43:44.111Z,78.67
2018-04-19T01:44:44.355Z,78.30
2018-04-19T01:45:44.597Z,78.67
2018-04-19T01:46:44.839Z,79.53
2018-04-19T01:47:45.081Z,79.25
2018-04-19T01:48:45.325Z,80.11
2018-04-19T01:49:45.567Z,80.01
2018-04-19T01:50:45.809Z,79.72
2018-04-19T01:51:46.052Z,79.72
2018-04-19T01:52:46.342Z,79.91
2018-04-19T01:53:46.536Z,80.20
2018-04-19T01:54:46.780Z,80.49
2018-04-19T01:55:47.022Z,80.92
2018-04-19T01:56:47.269Z,81.12
2018-04-19T01:57:47.507Z,81.21
2018-04-19T01:58:47.752Z,81.59
2018-04-19T01:59:47.991Z,81.88
2018-04-19T02:00:48.237Z,82.07
2018-04-19T02:01:48.475Z,82.83
2018-04-19T02:02:48.717Z,82.83
2018-04-19T02:03:48.957Z,82.73
2018-04-19T02:04:49.189Z,82.92
2018-04-19T02:05:49.430Z,82.92
2018-04-19T02:06:49.672Z,82.92
2018-04-19T02:07:49.915Z,83.02
2018-04-19T02:08:50.156Z,83.50
2018-04-19T02:09:50.398Z,83.31
2018-04-19T02:10:50.641Z,82.54
2018-04-19T02:11:50.883Z,82.35
2018-04-19T02:12:51.124Z,82.92
2018-04-19T02:13:51.366Z,82.64
2018-04-19T02:14:51.609Z,82.83
2018-04-19T02:15:51.850Z,82.49
2018-04-19T02:16:52.095Z,82.83
2018-04-19T02:17:52.332Z,82.68
2018-04-19T02:18:52.575Z,82.20
2018-04-19T02:19:52.817Z,82.30
2018-04-19T02:20:53.058Z,83.02
2018-04-19T02:21:53.305Z,82.54
2018-04-19T02:22:53.541Z,83.06
2018-04-19T02:23:53.781Z,83.06
2018-04-19T02:24:54.025Z,82.49
2018-04-19T02:25:54.265Z,81.63
2018-04-19T02:26:54.507Z,82.30
2018-04-19T02:27:54.749Z,81.54
2018-04-19T02:28:54.991Z,82.17
2018-04-19T02:29:55.232Z,82.59
2018-04-19T02:30:55.474Z,82.59
2018-04-19T02:31:55.714Z,82.11
2018-04-19T02:32:55.954Z,82.01
2018-04-19T02:33:56.196Z,82.11
2018-04-19T02:34:56.440Z,81.92
2018-04-19T02:35:56.676Z,81.63
2018-04-19T02:36:56.916Z,82.01
2018-04-19T02:37:57.160Z,82.07
2018-04-19T02:38:57.399Z,82.64
2018-04-19T02:39:57.640Z,82.64
2018-04-19T02:40:57.886Z,82.73
2018-04-19T02:41:58.123Z,82.54
2018-04-19T02:42:58.363Z,83.65
2018-04-19T02:43:58.604Z,85.08
2018-04-19T02:44:58.845Z,85.17
2018-04-19T02:45:59.087Z,85.27
2018-04-19T02:46:59.327Z,86.32
2018-04-19T02:47:59.569Z,86.51
2018-04-19T02:48:59.809Z,86.98
2018-04-19T02:50:00.052Z,87.70
2018-04-19T02:51:00.293Z,87.84
2018-04-19T02:52:00.535Z,87.79
2018-04-19T02:53:00.780Z,87.60
2018-04-19T02:54:01.019Z,88.18
2018-04-19T02:55:01.260Z,88.37
2018-04-19T02:56:01.502Z,88.84
2018-04-19T02:57:01.747Z,88.84
2018-04-19T02:58:01.986Z,89.51
2018-04-19T02:59:02.226Z,88.93
2018-04-19T03:00:02.468Z,89.51
2018-04-19T03:01:02.711Z,89.51
2018-04-19T03:02:02.951Z,89.51
2018-04-19T03:03:03.193Z,89.98
2018-04-19T03:04:03.437Z,90.27
2018-04-19T03:05:03.673Z,90.36
2018-04-19T03:06:03.925Z,90.36
2018-04-19T03:07:04.157Z,89.32
2018-04-19T03:08:04.400Z,89.70
2018-04-19T03:09:04.641Z,89.51
2018-04-19T03:10:04.883Z,89.79
2018-04-19T03:11:05.128Z,90.46
2018-04-19T03:12:05.365Z,89.41
2018-04-19T03:13:05.605Z,89.79
2018-04-19T03:14:05.850Z,89.41
2018-04-19T03:15:06.090Z,89.79
2018-04-19T03:16:06.329Z,90.46
2018-04-19T03:17:06.570Z,90.65
2018-04-19T03:18:06.815Z,90.03
2018-04-19T03:19:07.052Z,90.46
2018-04-19T03:20:07.294Z,90.89
2018-04-19T03:21:07.538Z,90.89
2018-04-19T03:22:07.778Z,90.99
2018-04-19T03:23:08.020Z,91.75
2018-04-19T03:24:08.262Z,91.75
2018-04-19T03:25:08.503Z,91.84
2018-04-19T03:26:08.737Z,91.46
2018-04-19T03:27:08.977Z,91.65
2018-04-19T03:28:09.218Z,92.27
2018-04-19T03:29:09.461Z,91.79
2018-04-19T03:30:09.716Z,91.08
2018-04-19T03:31:09.959Z,91.08
2018-04-19T03:32:10.199Z,91.37
2018-04-19T03:33:10.439Z,91.46
2018-04-19T03:34:10.681Z,91.56
2018-04-19T03:35:10.926Z,91.65
2018-04-19T03:36:11.166Z,91.94
2018-04-19T03:37:11.412Z,92.13
2018-04-19T03:38:11.649Z,92.60
2018-04-19T03:39:11.893Z,93.74
2018-04-19T03:40:12.136Z,93.65
2018-04-19T03:41:12.377Z,93.18
2018-04-19T03:42:12.623Z,93.37
2018-04-19T03:43:12.858Z,93.94
2018-04-19T03:44:13.099Z,93.46
2018-04-19T03:45:13.343Z,93.18
2018-04-19T03:46:13.582Z,93.37
2018-04-19T03:47:13.830Z,93.37
2018-04-19T03:48:14.069Z,93.55
2018-04-19T03:49:14.320Z,93.51
2018-04-19T03:50:14.567Z,92.60
2018-04-19T03:51:14.814Z,92.03
2018-04-19T03:52:15.055Z,92.03
2018-04-19T03:53:15.299Z,91.75
2018-04-19T03:54:15.547Z,91.56
2018-04-19T03:55:15.787Z,91.75
2018-04-19T03:56:16.053Z,92.13
2018-04-19T03:57:16.316Z,92.79
2018-04-19T03:58:16.564Z,92.70
2018-04-19T03:59:16.803Z,92.70
2018-04-19T04:00:17.047Z,93.18
2018-04-19T04:01:17.301Z,93.65
2018-04-19T04:02:17.544Z,93.84
2018-04-19T04:03:17.785Z,94.32
2018-04-19T04:04:18.024Z,94.03
2018-04-19T04:05:18.300Z,93.65
2018-04-19T04:06:18.542Z,94.60
2018-04-19T04:07:18.782Z,93.65
2018-04-19T04:08:19.024Z,93.46
2018-04-19T04:09:19.267Z,92.89
2018-04-19T04:10:19.499Z,92.99
2018-04-19T04:11:19.750Z,93.18
2018-04-19T04:12:19.989Z,93.08
2018-04-19T04:13:20.228Z,92.89
2018-04-19T04:14:20.472Z,93.41
2018-04-19T04:15:20.711Z,93.32
2018-04-19T04:16:20.953Z,93.32
2018-04-19T04:17:21.202Z,93.13
2018-04-19T04:18:21.444Z,93.41
2018-04-19T04:19:21.686Z,93.41
2018-04-19T04:20:21.927Z,93.51
2018-04-19T04:21:22.170Z,93.23
2018-04-19T04:22:22.408Z,94.46
2018-04-19T04:23:22.655Z,95.70
2018-04-19T04:24:22.899Z,95.79
2018-04-19T04:25:23.137Z,95.60
2018-04-19T04:26:23.381Z,94.56
2018-04-19T04:27:23.626Z,94.74
2018-04-19T04:28:23.864Z,95.32
2018-04-19T04:29:24.149Z,95.12
2018-04-19T04:30:24.356Z,95.89
2018-04-19T04:31:24.600Z,95.41
2018-04-19T04:32:24.840Z,95.12
2018-04-19T04:33:25.088Z,94.56
2018-04-19T04:34:25.365Z,95.03
2018-04-19T04:35:25.582Z,94.56
2018-04-19T04:36:25.804Z,94.27
2018-04-19T04:37:26.044Z,94.56
2018-04-19T04:38:26.286Z,94.65
2018-04-19T04:39:26.525Z,94.08
2018-04-19T04:40:26.767Z,95.03
2018-04-19T04:41:27.008Z,94.93
2018-04-19T04:42:27.249Z,95.12
2018-04-19T04:43:27.493Z,94.84
2018-04-19T04:44:27.733Z,94.93
2018-04-19T04:45:27.983Z,94.74
2018-04-19T04:46:28.216Z,94.74
2018-04-19T04:47:28.457Z,94.98
2018-04-19T04:48:28.696Z,94.22
2018-04-19T04:49:28.944Z,93.84
2018-04-19T04:50:29.178Z,94.13
2018-04-19T04:51:29.418Z,93.84
2018-04-19T04:52:29.664Z,94.32
2018-04-19T04:53:29.905Z,94.51
2018-04-19T04:54:30.147Z,94.32
2018-04-19T04:55:30.389Z,94.70
2018-04-19T04:56:30.627Z,94.51
2018-04-19T04:57:30.871Z,94.03
2018-04-19T04:58:31.111Z,93.74
2018-04-19T04:59:31.351Z,93.94
2018-04-19T05:00:31.590Z,93.84
2018-04-19T05:01:31.829Z,94.22
2018-04-19T05:02:32.077Z,93.65
2018-04-19T05:03:32.318Z,94.32
2018-04-19T05:04:32.560Z,93.94
2018-04-19T05:05:32.800Z,94.13
2018-04-19T05:06:33.034Z,93.84
2018-04-19T05:07:33.295Z,93.55
2018-04-19T05:08:33.524Z,93.22
2018-04-19T05:09:33.764Z,93.22
2018-04-19T05:10:34.006Z,92.94
2018-04-19T05:11:34.246Z,92.65
2018-04-19T05:12:34.490Z,92.36
2018-04-19T05:13:34.732Z,92.08
2018-04-19T05:14:35.012Z,91.60
2018-04-19T05:15:35.210Z,91.31
2018-04-19T05:16:35.446Z,91.51
2018-04-19T05:17:35.700Z,91.60
2018-04-19T05:18:35.944Z,91.46
2018-04-19T05:19:36.186Z,90.75
2018-04-19T05:20:36.427Z,91.17
2018-04-19T05:21:36.665Z,90.60
2018-04-19T05:22:36.906Z,90.89
2018-04-19T05:23:37.153Z,90.70
2018-04-19T05:24:37.413Z,90.12
2018-04-19T05:25:37.637Z,90.22
2018-04-19T05:26:37.872Z,89.55
2018-04-19T05:27:38.127Z,89.75
2018-04-19T05:28:38.367Z,89.65
2018-04-19T05:29:38.615Z,89.65
2018-04-19T05:30:38.865Z,90.70
2018-04-19T05:31:39.166Z,90.41
2018-04-19T05:32:39.353Z,90.79
2018-04-19T05:33:39.595Z,90.60
2018-04-19T05:34:39.839Z,91.17
2018-04-19T05:35:40.082Z,92.69
2018-04-19T05:36:40.336Z,92.50
2018-04-19T05:37:40.565Z,92.22
2018-04-19T05:38:40.804Z,91.74
2018-04-19T05:39:41.049Z,91.46
2018-04-19T05:40:41.290Z,90.89
2018-04-19T05:41:41.533Z,92.32
2018-04-19T05:42:41.776Z,90.79
2018-04-19T05:43:42.018Z,90.98
2018-04-19T05:44:42.262Z,91.55
2018-04-19T05:45:42.503Z,92.69
2018-04-19T05:46:42.746Z,91.60
2018-04-19T05:47:42.992Z,92.08
2018-04-19T05:48:43.232Z,92.08
2018-04-19T05:49:43.474Z,91.50
2018-04-19T05:50:43.721Z,90.55
2018-04-19T05:51:43.961Z,89.50
2018-04-19T05:52:44.209Z,89.22
2018-04-19T05:53:44.451Z,87.88
2018-04-19T05:54:44.698Z,90.55
2018-04-19T05:55:44.947Z,89.31
2018-04-19T05:56:45.186Z,88.26
2018-04-19T05:57:45.430Z,87.69
2018-04-19T05:58:45.673Z,87.60
2018-04-19T05:59:45.918Z,88.31
2018-04-19T06:00:46.164Z,88.12
2018-04-19T06:01:46.409Z,88.02
2018-04-19T06:02:46.652Z,87.74
2018-04-19T06:03:46.897Z,86.78
2018-04-19T06:04:47.143Z,86.59
2018-04-19T06:05:47.386Z,86.02
2018-04-19T06:06:47.629Z,85.93
2018-04-19T06:07:47.873Z,85.06
2018-04-19T06:08:48.118Z,84.44
2018-04-19T06:09:48.363Z,84.92
2018-04-19T06:10:48.606Z,84.92
2018-04-19T06:11:48.853Z,84.16
2018-04-19T06:12:49.097Z,83.77
2018-04-19T06:13:49.342Z,83.67
2018-04-19T06:14:49.592Z,82.57
2018-04-19T06:15:49.839Z,82.86
2018-04-19T06:16:50.073Z,82.48
2018-04-19T06:17:50.318Z,82.00
2018-04-19T06:18:50.563Z,82.00
2018-04-19T06:19:50.808Z,82.00
2018-04-19T06:20:51.051Z,81.24
2018-04-19T06:21:51.319Z,81.04
2018-04-19T06:22:51.548Z,80.70
2018-04-19T06:23:51.791Z,80.04
2018-04-19T06:24:52.090Z,80.22
2018-04-19T06:25:52.281Z,79.08
2018-04-19T06:26:52.527Z,79.17
2018-04-19T06:27:52.778Z,78.55
2018-04-19T06:28:53.016Z,78.64
2018-04-19T06:29:53.246Z,78.16
2018-04-19T06:30:53.507Z,77.78
2018-04-19T06:31:53.758Z,77.78
2018-04-19T06:32:54.002Z,76.92
2018-04-19T06:33:54.247Z,76.54
2018-04-19T06:34:54.494Z,76.48
2018-04-19T06:35:54.778Z,74.41
2018-04-19T06:36:54.981Z,71.71
2018-04-19T06:37:55.226Z,67.12
2018-04-19T06:38:55.472Z,62.99
2018-04-19T06:39:55.718Z,59.31
2018-04-19T06:40:55.965Z,55.90
2018-04-19T06:41:56.214Z,52.61
2018-04-19T06:42:56.470Z,50.71
2018-04-19T06:43:56.707Z,48.81
2018-04-19T06:44:56.949Z,47.38
2018-04-19T06:45:57.198Z,46.03
2018-04-19T06:46:57.449Z,45.38
2018-04-19T06:47:57.686Z,44.63
2018-04-19T06:48:57.935Z,44.42
2018-04-19T06:49:58.180Z,43.57
2018-04-19T06:50:58.431Z,42.91
2018-04-19T06:51:58.683Z,43.28
2018-04-19T06:52:58.930Z,42.43
2018-04-19T06:53:59.176Z,41.66
2018-04-19T06:54:59.424Z,41.58
2018-04-19T06:55:59.675Z,41.31
2018-04-19T06:56:59.927Z,41.33
2018-04-19T06:58:00.175Z,40.86
2018-04-19T06:59:00.420Z,40.77
2018-04-19T07:00:00.669Z,40.48
2018-04-19T07:01:00.924Z,40.01
2018-04-19T07:02:01.171Z,39.55
2018-04-19T07:03:01.416Z,38.29
2018-04-19T07:04:01.663Z,38.12
2018-04-19T07:05:01.910Z,38.02
2018-04-19T07:06:02.159Z,38.50
2018-04-19T07:07:02.407Z,39.06
2018-04-19T07:08:02.661Z,40.65
2018-04-19T07:09:02.909Z,40.67
2018-04-19T07:10:03.156Z,40.56
2018-04-19T07:11:03.403Z,42.00
2018-04-19T07:12:03.653Z,40.40
2018-04-19T07:13:03.897Z,40.28
2018-04-19T07:14:04.148Z,39.90
2018-04-19T07:15:04.399Z,38.93
2018-04-19T07:16:04.647Z,39.43
2018-04-19T07:17:04.894Z,39.62
2018-04-19T07:18:05.143Z,39.53
2018-04-19T07:19:05.396Z,40.19
2018-04-19T07:20:05.649Z,42.20
2018-04-19T07:21:05.892Z,40.48
2018-04-19T07:22:06.145Z,42.10
2018-04-19T07:23:06.399Z,41.35
2018-04-19T07:24:06.647Z,40.71
2018-04-19T07:25:06.896Z,39.11
2018-04-19T07:26:07.147Z,37.01
2018-04-19T07:27:07.395Z,35.57
2018-04-19T07:28:07.648Z,35.68
2018-04-19T07:29:07.903Z,33.93
2018-04-19T07:30:08.152Z,33.75
2018-04-19T07:31:08.404Z,33.38
2018-04-19T07:32:08.678Z,33.77
2018-04-19T07:33:08.916Z,33.26
2018-04-19T07:34:09.155Z,32.87
2018-04-19T07:35:09.411Z,31.63
2018-04-19T07:36:09.660Z,31.81
2018-04-19T07:37:09.912Z,31.81
2018-04-19T07:38:10.161Z,31.73
2018-04-19T07:39:10.413Z,31.14
2018-04-19T07:40:10.664Z,31.24
2018-04-19T07:41:10.915Z,31.34
2018-04-19T07:42:11.167Z,32.23
2018-04-19T07:43:11.419Z,32.24
2018-04-19T07:44:11.672Z,30.78
2018-04-19T07:45:11.925Z,29.71
2018-04-19T07:46:12.178Z,29.14
2018-04-19T07:47:12.431Z,29.24
2018-04-19T07:48:12.685Z,29.93
2018-04-19T07:49:12.936Z,29.75
2018-04-19T07:50:13.189Z,28.68
2018-04-19T07:51:13.450Z,28.19
2018-04-19T07:52:13.698Z,27.41
2018-04-19T07:53:13.953Z,27.22
2018-04-19T07:54:14.205Z,27.11
2018-04-19T07:55:14.462Z,28.19
2018-04-19T07:56:14.712Z,27.73
2018-04-19T07:57:14.973Z,27.81
2018-04-19T07:58:15.218Z,26.93
2018-04-19T07:59:15.472Z,26.56
2018-04-19T08:00:15.726Z,26.25
2018-04-19T08:01:15.981Z,25.89
2018-04-19T08:02:16.237Z,26.07
2018-04-19T08:03:16.489Z,26.28
2018-04-19T08:04:16.746Z,26.46
2018-04-19T08:05:17.043Z,26.64
2018-04-19T08:06:17.256Z,26.64
2018-04-19T08:07:17.511Z,27.16
2018-04-19T08:08:17.764Z,26.57
2018-04-19T08:09:18.020Z,26.76
2018-04-19T08:10:18.275Z,26.46
2018-04-19T08:11:18.544Z,26.73
2018-04-19T08:12:18.784Z,28.09
2018-04-19T08:13:19.070Z,26.77
2018-04-19T08:14:19.297Z,27.34
2018-04-19T08:15:19.549Z,26.87
2018-04-19T08:16:19.809Z,26.68
2018-04-19T08:17:20.061Z,25.62
2018-04-19T08:18:20.315Z,26.59
2018-04-19T08:19:20.571Z,27.19
2018-04-19T08:20:20.832Z,25.44
2018-04-19T08:21:21.082Z,24.93
2018-04-19T08:22:21.337Z,24.07
2018-04-19T08:23:21.594Z,24.65
2018-04-19T08:24:21.850Z,25.15
2018-04-19T08:25:22.107Z,25.54
2018-04-19T08:26:22.362Z,25.23
2018-04-19T08:27:22.618Z,25.32
2018-04-19T08:28:22.874Z,24.64
2018-04-19T08:29:23.131Z,23.27
2018-04-19T08:30:23.386Z,23.37
2018-04-19T08:31:23.641Z,23.97
2018-04-19T08:32:23.898Z,23.59
2018-04-19T08:33:24.155Z,22.71
2018-04-19T08:34:24.411Z,23.21
2018-04-19T08:35:24.680Z,21.94
2018-04-19T08:36:24.925Z,23.07
2018-04-19T08:37:25.181Z,23.57
2018-04-19T08:38:25.439Z,22.89
2018-04-19T08:39:25.694Z,23.09
2018-04-19T08:40:25.950Z,23.28
2018-04-19T08:41:26.208Z,24.08
2018-04-19T08:42:26.463Z,23.02
2018-04-19T08:43:26.719Z,22.73
2018-04-19T08:44:26.983Z,21.94
2018-04-19T08:45:27.237Z,21.75
2018-04-19T08:46:27.492Z,22.45
2018-04-19T08:47:27.750Z,22.36
2018-04-19T08:48:28.007Z,21.48
2018-04-19T08:49:28.262Z,21.30
2018-04-19T08:50:28.521Z,20.53
2018-04-19T08:51:28.778Z,20.54
2018-04-19T08:52:29.036Z,19.86
2018-04-19T08:53:29.294Z,18.79
2018-04-19T08:54:29.556Z,19.65
2018-04-19T08:55:29.808Z,19.34
2018-04-19T08:56:30.068Z,19.12
2018-04-19T08:57:30.328Z,19.75
2018-04-19T08:58:30.583Z,18.54
2018-04-19T08:59:30.839Z,20.18
2018-04-19T09:00:31.098Z,21.72
2018-04-19T09:01:31.361Z,22.91
2018-04-19T09:02:31.615Z,21.85
2018-04-19T09:03:31.883Z,21.54
2018-04-19T09:04:32.132Z,24.99
2018-04-19T09:05:32.389Z,26.53
2018-04-19T09:06:32.651Z,25.54
2018-04-19T09:07:32.905Z,23.62
2018-04-19T09:08:33.163Z,22.94
2018-04-19T09:09:33.421Z,23.94
2018-04-19T09:10:33.678Z,22.14
2018-04-19T09:11:33.936Z,20.41
2018-04-19T09:12:34.195Z,22.25
2018-04-19T09:13:34.475Z,22.73
2018-04-19T09:14:34.705Z,21.78
2018-04-19T09:15:34.965Z,18.84
2018-04-19T09:16:35.218Z,22.36
2018-04-19T09:17:35.476Z,24.06
2018-04-19T09:18:35.732Z,22.69
2018-04-19T09:19:35.990Z,22.20
2018-04-19T09:20:36.247Z,21.66
2018-04-19T09:21:36.504Z,21.75
2018-04-19T09:22:36.760Z,21.95
2018-04-19T09:23:37.019Z,22.37
2018-04-19T09:24:37.275Z,22.65
2018-04-19T09:25:37.533Z,24.68
2018-04-19T09:26:37.788Z,22.65
2018-04-19T09:27:38.045Z,23.93
2018-04-19T09:28:38.302Z,23.15
2018-04-19T09:29:38.559Z,22.80
2018-04-19T09:30:38.814Z,21.28
2018-04-19T09:31:39.072Z,22.41
2018-04-19T09:32:39.330Z,20.97
2018-04-19T09:33:39.586Z,22.30
2018-04-19T09:34:39.841Z,21.44
2018-04-19T09:35:40.099Z,22.69
2018-04-19T09:36:40.355Z,22.27
2018-04-19T09:37:40.613Z,22.50
2018-04-19T09:38:40.868Z,20.31
2018-04-19T09:39:41.125Z,18.16
2018-04-19T09:40:41.381Z,18.68
2018-04-19T09:41:41.639Z,20.66
2018-04-19T09:42:41.896Z,25.51
2018-04-19T09:43:42.155Z,24.43
2018-04-19T09:44:42.411Z,22.55
2018-04-19T09:45:42.672Z,21.99
2018-04-19T09:46:42.926Z,21.74
2018-04-19T09:47:43.187Z,23.02
2018-04-19T09:48:43.442Z,21.49
2018-04-19T09:49:43.704Z,20.41
2018-04-19T09:50:43.955Z,22.52
2018-04-19T09:51:44.213Z,23.47
2018-04-19T09:52:44.467Z,22.64
2018-04-19T09:53:44.772Z,20.33
2018-04-19T09:54:44.979Z,24.27
2018-04-19T09:55:45.240Z,22.99
2018-04-19T09:56:45.497Z,22.77
2018-04-19T09:57:45.756Z,21.43
2018-04-19T09:58:46.014Z,20.96
2018-04-19T09:59:46.270Z,20.68
2018-04-19T10:00:46.527Z,19.35
2018-04-19T10:01:46.784Z,21.42
2018-04-19T10:02:47.042Z,20.86
2018-04-19T10:03:47.300Z,24.73
2018-04-19T10:04:47.558Z,24.49
2018-04-19T10:05:47.816Z,22.38
2018-04-19T10:06:48.077Z,21.03
2018-04-19T10:07:48.332Z,24.30
2018-04-19T10:08:48.590Z,23.82
2018-04-19T10:09:48.849Z,25.07
2018-04-19T10:10:49.105Z,26.52
2018-04-19T10:11:49.364Z,27.86
2018-04-19T10:12:49.622Z,23.75
2018-04-19T10:13:49.881Z,25.31
2018-04-19T10:14:50.132Z,24.94
2018-04-19T10:15:50.398Z,25.10
2018-04-19T10:16:50.645Z,22.97
2018-04-19T10:17:50.903Z,23.95
2018-04-19T10:18:51.160Z,25.47
2018-04-19T10:19:51.418Z,23.44
2018-04-19T10:20:51.676Z,26.10
2018-04-19T10:21:51.935Z,27.33
2018-04-19T10:22:52.191Z,24.91
2018-04-19T10:23:52.449Z,23.90
2018-04-19T10:24:52.707Z,22.21
2018-04-19T10:25:52.964Z,21.64
2018-04-19T10:26:53.224Z,21.35
2018-04-19T10:27:53.480Z,26.80
2018-04-19T10:28:53.741Z,25.82
2018-04-19T10:29:54.001Z,28.63
2018-04-19T10:30:54.263Z,25.93
2018-04-19T10:31:54.528Z,22.95
2018-04-19T10:32:54.786Z,22.77
2018-04-19T10:33:55.046Z,21.80
2018-04-19T10:34:55.308Z,25.25
2018-04-19T10:35:55.570Z,25.80
2018-04-19T10:36:55.828Z,27.73
2018-04-19T10:37:56.086Z,28.80
2018-04-19T10:38:56.344Z,30.96
2018-04-19T10:39:56.604Z,25.05
2018-04-19T10:40:56.864Z,24.40
2018-04-19T10:41:57.113Z,25.23
2018-04-19T10:42:57.376Z,23.78
2018-04-19T10:43:57.634Z,22.17
2018-04-19T10:44:57.895Z,23.72
2018-04-19T10:45:58.156Z,25.05
2018-04-19T10:46:58.466Z,22.21
2018-04-19T10:47:58.672Z,22.99
2018-04-19T10:48:58.934Z,29.50
2018-04-19T10:49:59.203Z,23.27
2018-04-19T10:50:59.459Z,23.58
2018-04-19T10:51:59.721Z,23.28
2018-04-19T10:52:59.978Z,25.56
2018-04-19T10:54:00.238Z,21.49
2018-04-19T10:55:00.498Z,21.60
2018-04-19T10:56:00.758Z,24.84
2018-04-19T10:57:01.015Z,25.70
2018-04-19T10:58:01.274Z,24.34
2018-04-19T10:59:01.533Z,24.24
2018-04-19T11:00:01.796Z,23.86
2018-04-19T11:01:02.065Z,22.31
2018-04-19T11:02:02.315Z,22.84
2018-04-19T11:03:02.570Z,25.93
2018-04-19T11:04:02.850Z,21.25
2018-04-19T11:05:03.114Z,24.28
2018-04-19T11:06:03.373Z,26.43
2018-04-19T11:07:03.631Z,23.00
2018-04-19T11:08:03.890Z,24.29
2018-04-19T11:09:04.152Z,23.62
2018-04-19T11:10:04.403Z,22.53
2018-04-19T11:11:04.658Z,24.38
2018-04-19T11:12:04.919Z,24.27
2018-04-19T11:13:05.174Z,25.60
2018-04-19T11:14:05.433Z,23.07
2018-04-19T11:15:05.691Z,25.26
2018-04-19T11:16:05.950Z,20.59
2018-04-19T11:17:06.208Z,18.26
2018-04-19T11:18:06.471Z,17.29
2018-04-19T11:19:06.727Z,16.04
2018-04-19T11:20:06.988Z,17.00
2018-04-19T11:21:07.243Z,17.02
2018-04-19T11:22:07.502Z,17.14
2018-04-19T11:23:07.761Z,17.14
2018-04-19T11:24:08.021Z,16.28
2018-04-19T11:25:08.275Z,18.68
2018-04-19T11:26:08.611Z,23.05
2018-04-19T11:27:08.876Z,20.61
2018-04-19T11:28:09.133Z,19.44
2018-04-19T11:29:09.393Z,18.40
2018-04-19T11:30:09.650Z,16.97
2018-04-19T11:31:09.910Z,16.27
2018-04-19T11:32:10.168Z,21.61
2018-04-19T11:33:10.427Z,20.41
2018-04-19T11:34:10.686Z,18.99
2018-04-19T11:35:10.946Z,17.34
2018-04-19T11:36:11.204Z,17.47
2018-04-19T11:37:11.464Z,16.28
2018-04-19T11:38:11.712Z,19.49
2018-04-19T11:39:11.978Z,21.51
2018-04-19T11:40:12.231Z,22.55
2018-04-19T11:41:12.493Z,19.63
2018-04-19T11:42:12.752Z,18.47
2018-04-19T11:43:13.012Z,18.26
2018-04-19T11:44:13.273Z,20.59
2018-04-19T11:45:13.546Z,19.29
2018-04-19T11:46:13.798Z,20.78
2018-04-19T11:47:14.055Z,19.94
2018-04-19T11:48:14.319Z,18.88
2018-04-19T11:49:14.576Z,20.32
2018-04-19T11:50:14.833Z,21.68
2018-04-19T11:51:15.091Z,18.36
2018-04-19T11:52:15.349Z,17.51
2018-04-19T11:53:15.609Z,17.65
2018-04-19T11:54:15.867Z,14.63
2018-04-19T11:55:16.128Z,15.97
2018-04-19T11:56:16.385Z,15.86
2018-04-19T11:57:16.646Z,16.41
2018-04-19T11:58:16.907Z,19.51
2018-04-19T11:59:17.167Z,15.31
2018-04-19T12:00:17.425Z,19.84
2018-04-19T12:01:17.684Z,13.79
2018-04-19T12:02:17.958Z,12.65
2018-04-19T12:03:18.201Z,11.18
2018-04-19T12:04:18.463Z,13.17
2018-04-19T12:05:18.720Z,16.06
2018-04-19T12:06:18.978Z,13.01
2018-04-19T12:07:19.236Z,17.13
2018-04-19T12:08:19.532Z,14.03
2018-04-19T12:09:19.793Z,16.81
2018-04-19T12:10:20.051Z,15.08
2018-04-19T12:11:20.311Z,17.10
2018-04-19T12:12:20.572Z,18.65
2018-04-19T12:13:20.832Z,19.03
2018-04-19T12:14:21.091Z,19.41
2018-04-19T12:15:21.351Z,18.23
2018-04-19T12:16:21.610Z,15.90
2018-04-19T12:17:21.868Z,16.51
2018-04-19T12:18:22.126Z,18.66
2018-04-19T12:19:22.385Z,15.44
2018-04-19T12:20:22.643Z,14.20
2018-04-19T12:21:22.903Z,14.72
2018-04-19T12:22:23.227Z,14.58
2018-04-19T12:23:23.601Z,18.29
2018-04-19T12:24:23.936Z,15.97
2018-04-19T12:25:24.195Z,16.06
2018-04-19T12:26:24.456Z,14.32
2018-04-19T12:27:24.713Z,12.87
2018-04-19T12:28:24.971Z,14.05
2018-04-19T12:29:25.285Z,11.21
2018-04-19T12:30:25.544Z,12.15
2018-04-19T12:31:25.884Z,13.82
2018-04-19T12:32:26.136Z,13.85
2018-04-19T12:33:26.394Z,11.21
2018-04-19T12:34:26.652Z,10.24
2018-04-19T12:35:26.911Z,9.03
2018-04-19T12:36:27.169Z,8.25
2018-04-19T12:37:27.436Z,9.84
2018-04-19T12:38:27.688Z,10.93
2018-04-19T12:39:27.947Z,9.56
2018-04-19T12:40:28.205Z,9.86
2018-04-19T12:41:28.464Z,8.58
2018-04-19T12:42:28.722Z,11.05
2018-04-19T12:43:29.022Z,10.96
2018-04-19T12:44:29.241Z,13.71
2018-04-19T12:45:29.501Z,11.04
2018-04-19T12:46:29.761Z,13.01
2018-04-19T12:47:30.022Z,9.74
2018-04-19T12:48:30.284Z,14.37
2018-04-19T12:49:30.551Z,14.76
2018-04-19T12:50:30.804Z,13.70
2018-04-19T12:51:31.063Z,11.64
2018-04-19T12:52:31.323Z,10.26
2018-04-19T12:53:31.585Z,12.43
2018-04-19T12:54:31.843Z,14.98
2018-04-19T12:55:32.111Z,14.19